createdAt,value
2023-04-04T00:01:45.629Z,99713.69
2023-04-04T00:04:47.159Z,99713.59
2023-04-04T00:07:50.144Z,99717.06
2023-04-04T00:10:56.927Z,99717.91
2023-04-04T00:13:58.673Z,99714.34
2023-04-04T00:17:00.503Z,99711.69
2023-04-04T00:20:04.396Z,99715.16
2023-04-04T00:23:07.502Z,99708.13
2023-04-04T00:26:08.992Z,99710.75
2023-04-04T00:29:11.037Z,99709.81
2023-04-04T00:32:12.720Z,99713.31
2023-04-04T00:35:15.711Z,99705.41
2023-04-04T00:38:19.436Z,99716.75
2023-04-04T00:41:21.504Z,99709.66
2023-04-04T00:44:23.142Z,99712.19
2023-04-04T00:47:26.191Z,99713.00
2023-04-04T00:50:27.933Z,99704.25
2023-04-04T00:53:30.939Z,99710.38
2023-04-04T00:56:33.456Z,99708.63
2023-04-04T00:59:36.248Z,99709.50
2023-04-04T01:02:38.305Z,99699.00
2023-04-04T01:05:40.133Z,99706.88
2023-04-04T01:08:43.647Z,99703.34
2023-04-04T01:11:45.756Z,99701.59
2023-04-04T01:14:47.942Z,99698.88
2023-04-04T01:17:52.012Z,99696.16
2023-04-04T01:20:56.582Z,99691.75
2023-04-04T01:24:01.698Z,99695.22
2023-04-04T01:27:27.811Z,99697.00
2023-04-04T01:30:36.940Z,99694.34
2023-04-04T01:33:43.365Z,99697.84
2023-04-04T01:36:49.443Z,99697.00
2023-04-04T01:39:53.986Z,99689.13
2023-04-04T01:42:57.919Z,99685.66
2023-04-04T01:46:02.005Z,99677.63
2023-04-04T01:49:04.087Z,99684.59
2023-04-04T01:52:09.577Z,99679.34
2023-04-04T01:55:12.678Z,99680.97
2023-04-04T01:58:15.959Z,99677.38
2023-04-04T02:01:17.591Z,99674.78
2023-04-04T02:04:19.266Z,99677.44
2023-04-04T02:07:20.910Z,99676.56
2023-04-04T02:10:23.105Z,99681.78
2023-04-04T02:13:26.088Z,99682.53
2023-04-04T02:16:28.061Z,99679.00
2023-04-04T02:19:29.722Z,99677.25
2023-04-04T02:22:31.401Z,99674.66
2023-04-04T02:25:32.995Z,99660.69
2023-04-04T02:28:36.065Z,99656.28
2023-04-04T02:31:37.813Z,99662.38
2023-04-04T02:34:39.972Z,99648.38
2023-04-04T02:37:43.030Z,99647.50
2023-04-04T02:40:46.267Z,99645.78
2023-04-04T02:43:51.455Z,99654.47
2023-04-04T02:46:53.981Z,99656.13
2023-04-04T02:50:02.147Z,99655.28
2023-04-04T02:53:04.520Z,99653.47
2023-04-04T02:56:08.887Z,99652.59
2023-04-04T02:59:12.375Z,99654.31
2023-04-04T03:02:14.135Z,99642.19
2023-04-04T03:05:15.982Z,99639.66
2023-04-04T03:08:18.465Z,99640.56
2023-04-04T03:11:21.580Z,99634.47
2023-04-04T03:14:27.123Z,99634.44
2023-04-04T03:17:30.746Z,99628.16
2023-04-04T03:20:33.118Z,99629.84
2023-04-04T03:23:35.034Z,99617.47
2023-04-04T03:26:36.607Z,99617.50
2023-04-04T03:29:40.578Z,99605.22
2023-04-04T03:32:42.719Z,99605.25
2023-04-04T03:35:44.538Z,99610.56
2023-04-04T03:38:46.158Z,99605.41
2023-04-04T03:41:47.989Z,99604.56
2023-04-04T03:44:51.168Z,99605.41
2023-04-04T03:48:02.298Z,99600.25
2023-04-04T03:51:05.569Z,99608.09
2023-04-04T03:54:07.204Z,99607.19
2023-04-04T03:57:09.103Z,99604.44
2023-04-04T04:00:13.082Z,99602.63
2023-04-04T04:03:16.411Z,99598.13
2023-04-04T04:06:18.871Z,99607.63
2023-04-04T04:09:21.445Z,99597.28
2023-04-04T04:12:23.784Z,99593.06
2023-04-04T04:15:28.606Z,99594.84
2023-04-04T04:18:32.804Z,99596.56
2023-04-04T04:21:35.480Z,99590.34
2023-04-04T04:24:37.153Z,99587.63
2023-04-04T04:27:41.049Z,99597.19
2023-04-04T04:30:44.930Z,99598.88
2023-04-04T04:33:48.921Z,99589.25
2023-04-04T04:36:53.906Z,99597.16
2023-04-04T04:40:02.005Z,99592.91
2023-04-04T04:43:15.330Z,99585.06
2023-04-04T04:46:18.373Z,99595.53
2023-04-04T04:49:20.279Z,99596.41
2023-04-04T04:52:22.800Z,99596.41
2023-04-04T04:55:25.249Z,99600.75
2023-04-04T04:58:37.443Z,99593.75
2023-04-04T05:01:43.833Z,99588.59
2023-04-04T05:04:45.681Z,99592.16
2023-04-04T05:07:49.945Z,99586.94
2023-04-04T05:10:52.787Z,99587.81
2023-04-04T05:13:55.466Z,99588.72
2023-04-04T05:17:01.765Z,99595.66
2023-04-04T05:20:07.692Z,99599.16
2023-04-04T05:23:10.680Z,99600.94
2023-04-04T05:26:15.874Z,99607.91
2023-04-04T05:29:18.394Z,99607.09
2023-04-04T05:32:24.465Z,99601.09
2023-04-04T05:35:36.447Z,99605.34
2023-04-04T05:38:39.278Z,99608.97
2023-04-04T05:41:41.980Z,99611.66
2023-04-04T05:44:48.979Z,99619.47
2023-04-04T05:47:52.218Z,99619.56
2023-04-04T05:50:55.592Z,99623.22
2023-04-04T05:54:10.085Z,99622.44
2023-04-04T05:57:13.274Z,99617.19
2023-04-04T06:00:22.748Z,99627.66
2023-04-04T06:03:38.252Z,99620.75
2023-04-04T06:06:45.471Z,99632.13
2023-04-04T06:09:47.532Z,99633.94
2023-04-04T06:12:49.415Z,99635.81
2023-04-04T06:15:52.095Z,99639.44
2023-04-04T06:18:56.819Z,99633.41
2023-04-04T06:21:58.499Z,99636.22
2023-04-04T06:25:00.850Z,99644.28
2023-04-04T06:28:04.412Z,99649.72
2023-04-04T06:31:07.392Z,99645.50
2023-04-04T06:34:10.458Z,99646.41
2023-04-04T06:37:25.015Z,99648.19
2023-04-04T06:40:36.320Z,99657.91
2023-04-04T06:43:38.540Z,99657.94
2023-04-04T06:46:40.285Z,99667.69
2023-04-04T06:49:43.302Z,99663.41
2023-04-04T06:52:45.779Z,99666.91
2023-04-04T06:55:47.381Z,99665.25
2023-04-04T06:58:49.292Z,99666.13
2023-04-04T07:01:51.178Z,99668.94
2023-04-04T07:04:54.076Z,99664.56
2023-04-04T07:07:56.764Z,99667.22
2023-04-04T07:10:58.746Z,99667.28
2023-04-04T07:14:00.556Z,99665.59
2023-04-04T07:17:10.653Z,99667.38
2023-04-04T07:20:20.338Z,99663.06
2023-04-04T07:23:21.999Z,99659.53
2023-04-04T07:26:23.723Z,99670.06
2023-04-04T07:29:25.383Z,99664.06
2023-04-04T07:32:27.152Z,99660.63
2023-04-04T07:35:30.220Z,99666.88
2023-04-04T07:38:31.867Z,99664.28
2023-04-04T07:41:33.729Z,99669.56
2023-04-04T07:44:35.579Z,99665.16
2023-04-04T07:47:37.526Z,99670.44
2023-04-04T07:50:40.840Z,99671.31
2023-04-04T07:53:42.576Z,99673.16
2023-04-04T07:56:44.295Z,99668.75
2023-04-04T07:59:46.013Z,99662.56
2023-04-04T08:02:51.611Z,99664.38
2023-04-04T08:05:54.581Z,99659.13
2023-04-04T08:08:56.127Z,99650.41
2023-04-04T08:11:57.712Z,99657.44
2023-04-04T08:14:59.420Z,99655.72
2023-04-04T08:18:01.704Z,99650.44
2023-04-04T08:21:04.778Z,99652.22
2023-04-04T08:24:06.628Z,99656.59
2023-04-04T08:27:08.160Z,99660.97
2023-04-04T08:30:10.233Z,99659.22
2023-04-04T08:33:11.882Z,99656.56
2023-04-04T08:36:14.736Z,99650.41
2023-04-04T08:39:16.339Z,99658.31
2023-04-04T08:42:20.547Z,99650.44
2023-04-04T08:45:23.342Z,99649.56
2023-04-04T08:48:27.095Z,99655.69
2023-04-04T08:51:31.755Z,99646.91
2023-04-04T08:54:34.275Z,99645.16
2023-04-04T08:57:36.205Z,99645.94
2023-04-04T09:00:40.531Z,99662.66
2023-04-04T09:03:43.155Z,99653.00
2023-04-04T09:06:46.954Z,99655.56
2023-04-04T09:09:49.370Z,99658.13
2023-04-04T09:12:51.859Z,99654.53
2023-04-04T09:15:55.213Z,99660.75
2023-04-04T09:18:56.981Z,99654.63
2023-04-04T09:21:59.955Z,99652.84
2023-04-04T09:25:01.543Z,99646.59
2023-04-04T09:28:05.522Z,99643.09
2023-04-04T09:31:08.299Z,99641.25
2023-04-04T09:34:10.304Z,99646.53
2023-04-04T09:37:15.560Z,99644.03
2023-04-04T09:40:17.429Z,99637.88
2023-04-04T09:43:19.544Z,99643.91
2023-04-04T09:46:21.378Z,99642.97
2023-04-04T09:49:23.425Z,99635.75
2023-04-04T09:52:27.076Z,99638.41
2023-04-04T09:55:31.447Z,99633.22
2023-04-04T09:58:36.414Z,99630.66
2023-04-04T10:01:38.227Z,99637.81
2023-04-04T10:04:40.069Z,99638.63
2023-04-04T10:07:44.381Z,99634.22
2023-04-04T10:10:55.715Z,99624.19
2023-04-04T10:14:04.768Z,99621.44
2023-04-04T10:17:09.246Z,99628.38
2023-04-04T10:20:12.033Z,99618.84
2023-04-04T10:23:16.342Z,99627.38
2023-04-04T10:26:18.036Z,99626.34
2023-04-04T10:29:20.024Z,99626.31
2023-04-04T10:32:24.508Z,99627.22
2023-04-04T10:35:26.522Z,99624.63
2023-04-04T10:38:31.784Z,99620.47
2023-04-04T10:41:34.187Z,99620.66
2023-04-04T10:44:39.033Z,99608.53
2023-04-04T10:47:42.509Z,99602.13
2023-04-04T10:50:44.184Z,99605.88
2023-04-04T10:53:47.402Z,99606.34
2023-04-04T10:56:49.795Z,99605.59
2023-04-04T10:59:59.105Z,99604.00
2023-04-04T11:03:02.708Z,99591.59
2023-04-04T11:06:14.401Z,99580.56
2023-04-04T11:09:37.254Z,99576.94
2023-04-04T11:12:45.107Z,99575.72
2023-04-04T11:15:51.576Z,99578.03
2023-04-04T11:18:59.294Z,99566.25
2023-04-04T11:22:00.948Z,99572.56
2023-04-04T11:25:17.860Z,99563.13
2023-04-04T11:28:43.971Z,99560.19
2023-04-04T11:31:45.854Z,99558.13
2023-04-04T11:34:50.356Z,99561.59
2023-04-04T11:38:02.157Z,99547.53
2023-04-04T11:41:05.060Z,99548.72
2023-04-04T11:44:10.251Z,99543.63
2023-04-04T11:47:12.700Z,99538.84
2023-04-04T11:50:14.970Z,99540.41
2023-04-04T11:53:17.565Z,99534.09
2023-04-04T11:56:19.299Z,99540.78
2023-04-04T11:59:23.159Z,99529.13
2023-04-04T12:02:29.803Z,99522.09
2023-04-04T12:05:31.652Z,99522.72
2023-04-04T12:08:33.773Z,99509.41
2023-04-04T12:11:36.494Z,99515.28
2023-04-04T12:14:40.159Z,99517.13
2023-04-04T12:17:42.277Z,99517.28
2023-04-04T12:20:47.664Z,99509.53
2023-04-04T12:23:49.586Z,99511.47
2023-04-04T12:26:52.435Z,99500.94
2023-04-04T12:29:55.776Z,99501.81
2023-04-04T12:32:57.804Z,99502.00
2023-04-04T12:36:00.166Z,99495.56
2023-04-04T12:39:04.783Z,99503.16
2023-04-04T12:42:07.599Z,99493.97
2023-04-04T12:45:11.134Z,99490.53
2023-04-04T12:48:13.800Z,99490.81
2023-04-04T12:51:15.996Z,99485.09
2023-04-04T12:54:29.037Z,99489.06
2023-04-04T12:57:34.030Z,99479.28
2023-04-04T13:00:37.243Z,99477.22
2023-04-04T13:03:38.972Z,99470.28
2023-04-04T13:06:40.814Z,99474.34
2023-04-04T13:09:52.578Z,99468.00
2023-04-04T13:12:56.855Z,99469.50
2023-04-04T13:16:00.358Z,99458.00
2023-04-04T13:19:02.591Z,99453.41
2023-04-04T13:22:08.191Z,99443.50
2023-04-04T13:25:11.207Z,99438.56
2023-04-04T13:28:13.051Z,99435.72
2023-04-04T13:31:16.365Z,99429.28
2023-04-04T13:34:18.234Z,99428.47
2023-04-04T13:37:20.591Z,99432.84
2023-04-04T13:40:22.199Z,99422.44
2023-04-04T13:43:23.962Z,99419.84
2023-04-04T13:46:27.372Z,99419.34
2023-04-04T13:49:29.048Z,99414.81
2023-04-04T13:52:30.906Z,99410.34
2023-04-04T13:55:32.552Z,99400.19
2023-04-04T13:58:34.062Z,99394.53
2023-04-04T14:01:40.085Z,99403.78
2023-04-04T14:04:41.787Z,99386.81
2023-04-04T14:07:45.548Z,99385.94
2023-04-04T14:10:47.061Z,99386.69
2023-04-04T14:13:48.686Z,99375.63
2023-04-04T14:16:51.783Z,99379.56
2023-04-04T14:19:53.458Z,99389.63
2023-04-04T14:22:54.975Z,99383.56
2023-04-04T14:25:56.647Z,99374.75
2023-04-04T14:28:58.113Z,99381.03
2023-04-04T14:32:01.448Z,99385.53
2023-04-04T14:35:03.157Z,99380.31
2023-04-04T14:38:04.830Z,99381.75
2023-04-04T14:41:06.616Z,99377.19
2023-04-04T14:44:08.582Z,99368.97
2023-04-04T14:47:11.722Z,99362.97
2023-04-04T14:50:13.303Z,99362.91
2023-04-04T14:53:14.997Z,99352.41
2023-04-04T14:56:16.554Z,99355.72
2023-04-04T14:59:18.337Z,99359.34
2023-04-04T15:02:22.205Z,99348.00
2023-04-04T15:05:25.305Z,99348.56
2023-04-04T15:08:27.506Z,99342.97
2023-04-04T15:11:29.106Z,99348.78
2023-04-04T15:14:30.647Z,99345.16
2023-04-04T15:17:34.011Z,99347.25
2023-04-04T15:20:40.218Z,99348.38
2023-04-04T15:23:42.058Z,99343.22
2023-04-04T15:26:43.766Z,99340.66
2023-04-04T15:29:45.512Z,99336.16
2023-04-04T15:32:48.469Z,99338.88
2023-04-04T15:35:50.303Z,99342.59
2023-04-04T15:38:52.126Z,99338.09
2023-04-04T15:41:53.754Z,99330.28
2023-04-04T15:44:55.588Z,99328.69
2023-04-04T15:47:58.609Z,99337.97
2023-04-04T15:51:04.153Z,99336.38
2023-04-04T15:54:06.109Z,99338.94
2023-04-04T15:57:07.835Z,99337.25
2023-04-04T16:00:09.984Z,99330.00
2023-04-04T16:03:13.295Z,99330.50
2023-04-04T16:06:14.977Z,99328.03
2023-04-04T16:09:16.559Z,99323.72
2023-04-04T16:12:18.452Z,99327.53
2023-04-04T16:15:20.768Z,99325.81
2023-04-04T16:18:27.330Z,99325.78
2023-04-04T16:21:29.289Z,99325.81
2023-04-04T16:24:30.843Z,99324.09
2023-04-04T16:27:32.604Z,99325.97
2023-04-04T16:30:34.201Z,99318.13
2023-04-04T16:33:37.060Z,99318.91
2023-04-04T16:36:38.664Z,99309.19
2023-04-04T16:39:41.072Z,99312.00
2023-04-04T16:42:42.809Z,99303.97
2023-04-04T16:45:44.560Z,99298.38
2023-04-04T16:48:47.814Z,99298.53
2023-04-04T16:51:49.566Z,99296.91
2023-04-04T16:54:52.680Z,99294.16
2023-04-04T16:57:54.567Z,99290.91
2023-04-04T17:00:56.293Z,99295.28
2023-04-04T17:03:59.469Z,99297.47
2023-04-04T17:07:02.437Z,99308.38
2023-04-04T17:10:04.484Z,99298.78
2023-04-04T17:13:06.528Z,99296.91
2023-04-04T17:16:08.626Z,99289.88
2023-04-04T17:19:12.880Z,99298.06
2023-04-04T17:22:16.109Z,99292.09
2023-04-04T17:25:18.225Z,99286.06
2023-04-04T17:28:20.008Z,99288.88
2023-04-04T17:31:24.672Z,99289.78
2023-04-04T17:34:27.870Z,99282.13
2023-04-04T17:37:31.007Z,99288.41
2023-04-04T17:40:32.786Z,99287.63
2023-04-04T17:43:34.626Z,99285.97
2023-04-04T17:46:38.524Z,99286.16
2023-04-04T17:49:41.669Z,99288.03
2023-04-04T17:52:44.329Z,99286.34
2023-04-04T17:55:46.062Z,99283.84
2023-04-04T17:58:47.794Z,99291.88
2023-04-04T18:01:49.766Z,99287.53
2023-04-04T18:04:52.821Z,99295.59
2023-04-04T18:07:54.385Z,99286.03
2023-04-04T18:10:57.161Z,99292.22
2023-04-04T18:13:58.929Z,99287.91
2023-04-04T18:17:00.920Z,99291.56
2023-04-04T18:20:05.535Z,99292.53
2023-04-04T18:23:07.204Z,99296.13
2023-04-04T18:26:09.436Z,99297.97
2023-04-04T18:29:13.149Z,99296.25
2023-04-04T18:32:14.933Z,99301.59
2023-04-04T18:35:18.669Z,99295.44
2023-04-04T18:38:20.302Z,99302.56
2023-04-04T18:41:22.321Z,99296.47
2023-04-04T18:44:24.558Z,99292.94
2023-04-04T18:47:27.209Z,99298.25
2023-04-04T18:50:30.371Z,99299.13
2023-04-04T18:53:31.967Z,99289.47
2023-04-04T18:56:33.747Z,99300.94
2023-04-04T18:59:35.448Z,99293.91
2023-04-04T19:02:38.651Z,99301.81
2023-04-04T19:05:46.156Z,99292.13
2023-04-04T19:08:50.074Z,99294.81
2023-04-04T19:11:52.698Z,99295.72
2023-04-04T19:14:54.714Z,99294.84
2023-04-04T19:17:56.610Z,99301.88
2023-04-04T19:20:59.868Z,99295.75
2023-04-04T19:24:01.885Z,99296.66
2023-04-04T19:27:03.673Z,99300.22
2023-04-04T19:30:12.142Z,99294.94
2023-04-04T19:33:15.466Z,99294.06
2023-04-04T19:36:19.584Z,99290.53
2023-04-04T19:39:23.398Z,99289.69
2023-04-04T19:42:27.136Z,99290.59
2023-04-04T19:45:46.708Z,99289.75
2023-04-04T19:48:49.249Z,99291.50
2023-04-04T19:51:53.506Z,99285.38
2023-04-04T19:54:55.311Z,99289.75
2023-04-04T19:57:57.276Z,99289.81
2023-04-04T20:00:58.994Z,99285.41
2023-04-04T20:04:05.189Z,99279.28
2023-04-04T20:07:10.658Z,99286.31
2023-04-04T20:10:12.422Z,99285.44
2023-04-04T20:13:14.141Z,99284.53
2023-04-04T20:16:17.092Z,99286.31
2023-04-04T20:19:19.715Z,99289.84
2023-04-04T20:22:23.482Z,99287.22
2023-04-04T20:25:39.591Z,99290.75
2023-04-04T20:28:43.863Z,99288.16
2023-04-04T20:31:46.646Z,99289.03
2023-04-04T20:34:50.294Z,99286.41
2023-04-04T20:37:53.572Z,99289.94
2023-04-04T20:40:59.209Z,99289.03
2023-04-04T20:44:01.078Z,99284.66
2023-04-04T20:47:02.732Z,99285.56
2023-04-04T20:50:22.448Z,99288.25
2023-04-04T20:53:27.464Z,99288.31
2023-04-04T20:56:43.728Z,99287.47
2023-04-04T20:59:48.368Z,99290.16
2023-04-04T21:02:50.492Z,99284.06
2023-04-04T21:05:52.834Z,99287.59
2023-04-04T21:08:56.073Z,99285.00
2023-04-04T21:11:58.324Z,99285.03
2023-04-04T21:15:00.606Z,99278.88
2023-04-04T21:18:06.642Z,99274.50
2023-04-04T21:21:12.434Z,99270.97
2023-04-04T21:27:41.864Z,99272.78
2023-04-04T21:30:44.187Z,99273.66
2023-04-04T21:33:46.368Z,99275.44
2023-04-04T21:36:48.626Z,99269.31
2023-04-04T21:39:52.245Z,99265.81
2023-04-04T21:42:55.549Z,99261.44
2023-04-04T21:45:57.347Z,99264.09
2023-04-04T21:48:58.978Z,99260.59
2023-04-04T21:52:00.741Z,99259.72
2023-04-04T21:55:02.767Z,99264.13
2023-04-04T21:58:08.904Z,99252.72
2023-04-04T22:01:12.045Z,99244.81
2023-04-04T22:04:13.809Z,99250.97
2023-04-04T22:07:15.413Z,99252.69
2023-04-04T22:10:18.954Z,99240.44
2023-04-04T22:13:22.682Z,99252.75
2023-04-04T22:16:26.082Z,99255.41
2023-04-04T22:19:27.666Z,99256.28
2023-04-04T22:22:30.106Z,99248.38
2023-04-04T22:25:33.959Z,99246.63
2023-04-04T22:28:38.563Z,99247.50
2023-04-04T22:31:40.355Z,99241.38
2023-04-04T22:34:42.302Z,99247.50
2023-04-04T22:37:46.075Z,99244.88
2023-04-04T22:40:47.974Z,99248.41
2023-04-04T22:43:50.931Z,99247.50
2023-04-04T22:46:52.685Z,99243.13
2023-04-04T22:50:06.073Z,99239.63
2023-04-04T22:53:13.100Z,99229.09
2023-04-04T22:56:15.065Z,99229.97
2023-04-04T22:59:42.409Z,99229.97
2023-04-04T23:02:47.267Z,99229.09
2023-04-04T23:05:49.708Z,99222.09
2023-04-04T23:08:51.577Z,99229.13
2023-04-04T23:11:53.420Z,99222.97
2023-04-04T23:14:55.012Z,99222.97
2023-04-04T23:17:58.288Z,99217.69
2023-04-04T23:21:00.190Z,99215.97
2023-04-04T23:27:22.809Z,99221.22
2023-04-04T23:30:25.609Z,99218.59
2023-04-04T23:33:28.564Z,99214.22
2023-04-04T23:36:30.999Z,99209.81
2023-04-04T23:39:32.835Z,99211.56
2023-04-04T23:42:34.623Z,99203.69
2023-04-04T23:45:39.687Z,99199.31
2023-04-04T23:48:42.730Z,99196.69
2023-04-04T23:51:44.918Z,99192.28
2023-04-04T23:54:46.521Z,99191.41
2023-04-04T23:57:48.187Z,99185.25
